createdAt,value
2023-03-06T00:01:03.013Z,82.63
2023-03-06T00:03:30.486Z,82.40
2023-03-06T00:05:58.862Z,82.46
2023-03-06T00:08:28.826Z,82.46
2023-03-06T00:10:57.029Z,82.40
2023-03-06T00:13:26.782Z,82.26
2023-03-06T00:15:54.526Z,82.26
2023-03-06T00:18:22.004Z,82.12
2023-03-06T00:20:49.468Z,82.12
2023-03-06T00:23:16.887Z,81.98
2023-03-06T00:25:45.853Z,81.94
2023-03-06T00:28:15.750Z,81.71
2023-03-06T00:30:44.414Z,81.72
2023-03-06T00:33:12.255Z,81.57
2023-03-06T00:35:41.242Z,81.39
2023-03-06T00:38:12.796Z,81.41
2023-03-06T00:40:40.606Z,81.53
2023-03-06T00:43:08.060Z,81.88
2023-03-06T00:45:36.501Z,82.20
2023-03-06T00:48:04.577Z,82.13
2023-03-06T00:50:32.239Z,82.70
2023-03-06T00:53:00.524Z,82.59
2023-03-06T00:55:29.522Z,82.56
2023-03-06T00:57:57.034Z,82.96
2023-03-06T01:00:25.029Z,83.07
2023-03-06T01:02:53.716Z,83.16
2023-03-06T01:05:22.891Z,83.19
2023-03-06T01:07:50.370Z,83.12
2023-03-06T01:10:17.945Z,83.18
2023-03-06T01:12:46.122Z,83.08
2023-03-06T01:15:14.338Z,83.00
2023-03-06T01:17:41.814Z,83.05
2023-03-06T01:20:15.057Z,83.32
2023-03-06T01:22:43.475Z,83.74
2023-03-06T01:25:11.759Z,83.61
2023-03-06T01:27:39.318Z,83.83
2023-03-06T01:30:07.831Z,83.85
2023-03-06T01:32:35.300Z,83.83
2023-03-06T01:35:03.990Z,83.74
2023-03-06T01:37:31.414Z,83.58
2023-03-06T01:39:58.757Z,83.75
2023-03-06T01:42:26.057Z,83.67
2023-03-06T01:45:24.077Z,83.42
2023-03-06T01:47:51.479Z,82.90
2023-03-06T01:50:19.045Z,83.03
2023-03-06T01:52:54.293Z,83.23
2023-03-06T01:55:29.609Z,83.47
2023-03-06T01:58:03.490Z,83.86
2023-03-06T02:00:31.172Z,84.12
2023-03-06T02:03:11.285Z,84.30
2023-03-06T02:05:41.308Z,84.70
2023-03-06T02:08:17.838Z,84.65
2023-03-06T02:11:13.894Z,84.64
2023-03-06T02:13:43.431Z,84.78
2023-03-06T02:16:13.587Z,84.69
2023-03-06T02:18:44.076Z,84.62
2023-03-06T02:21:21.858Z,84.79
2023-03-06T02:24:13.708Z,85.04
2023-03-06T02:26:43.344Z,85.21
2023-03-06T02:29:11.513Z,84.88
2023-03-06T02:31:38.922Z,84.95
2023-03-06T02:34:14.690Z,85.40
2023-03-06T02:36:55.157Z,85.69
2023-03-06T02:39:26.723Z,85.78
2023-03-06T02:41:55.081Z,85.52
2023-03-06T02:44:23.891Z,85.31
2023-03-06T02:46:51.106Z,85.33
2023-03-06T02:49:18.474Z,85.37
2023-03-06T02:51:46.190Z,85.33
2023-03-06T02:54:13.595Z,85.92
2023-03-06T02:56:43.139Z,85.74
2023-03-06T02:59:11.193Z,85.72
2023-03-06T03:01:39.258Z,85.70
2023-03-06T03:04:06.955Z,85.84
2023-03-06T03:06:34.369Z,85.82
2023-03-06T03:09:02.267Z,85.93
2023-03-06T03:11:29.853Z,86.31
2023-03-06T03:13:57.210Z,86.12
2023-03-06T03:16:27.342Z,86.15
2023-03-06T03:18:58.518Z,86.21
2023-03-06T03:21:27.649Z,86.28
2023-03-06T03:23:55.996Z,86.32
2023-03-06T03:26:26.072Z,86.33
2023-03-06T03:29:08.401Z,86.42
2023-03-06T03:31:35.842Z,86.38
2023-03-06T03:34:04.209Z,86.43
2023-03-06T03:36:35.208Z,86.64
2023-03-06T03:39:04.608Z,87.01
2023-03-06T03:41:33.564Z,87.37
2023-03-06T03:44:04.182Z,87.38
2023-03-06T03:46:32.455Z,87.28
2023-03-06T03:49:01.760Z,87.00
2023-03-06T03:51:29.248Z,87.22
2023-03-06T03:53:58.604Z,87.39
2023-03-06T03:56:29.389Z,87.29
2023-03-06T03:59:03.089Z,87.18
2023-03-06T04:01:39.666Z,87.11
2023-03-06T04:04:08.127Z,86.76
2023-03-06T04:06:36.088Z,86.76
2023-03-06T04:09:04.599Z,86.67
2023-03-06T04:11:32.646Z,86.76
2023-03-06T04:13:59.997Z,86.71
2023-03-06T04:16:27.485Z,87.08
2023-03-06T04:18:55.493Z,86.99
2023-03-06T04:21:23.163Z,87.19
2023-03-06T04:23:50.622Z,87.26
2023-03-06T04:26:18.019Z,87.10
2023-03-06T04:28:46.182Z,87.17
2023-03-06T04:31:13.974Z,87.06
2023-03-06T04:33:41.514Z,86.83
2023-03-06T04:36:32.124Z,86.85
2023-03-06T04:39:05.179Z,86.67
2023-03-06T04:41:34.550Z,86.70
2023-03-06T04:44:02.270Z,86.62
2023-03-06T04:46:29.687Z,86.95
2023-03-06T04:48:58.194Z,86.90
2023-03-06T04:51:26.088Z,86.77
2023-03-06T04:53:53.622Z,86.65
2023-03-06T04:56:21.041Z,86.52
2023-03-06T04:58:48.503Z,86.47
2023-03-06T05:01:15.992Z,86.97
2023-03-06T05:03:43.419Z,86.92
2023-03-06T05:06:10.884Z,86.98
2023-03-06T05:08:38.923Z,86.99
2023-03-06T05:11:06.360Z,86.99
2023-03-06T05:13:34.045Z,86.90
2023-03-06T05:16:06.280Z,87.14
2023-03-06T05:18:34.846Z,87.31
2023-03-06T05:21:02.639Z,87.10
2023-03-06T05:23:33.101Z,87.15
2023-03-06T05:26:00.648Z,87.36
2023-03-06T05:28:28.682Z,87.46
2023-03-06T05:30:56.330Z,87.55
2023-03-06T05:33:23.814Z,87.21
2023-03-06T05:35:51.260Z,87.12
2023-03-06T05:38:18.844Z,87.08
2023-03-06T05:40:46.456Z,86.80
2023-03-06T05:43:13.999Z,86.84
2023-03-06T05:45:41.783Z,86.48
2023-03-06T05:48:11.835Z,86.71
2023-03-06T05:50:40.269Z,86.43
2023-03-06T05:53:07.627Z,85.86
2023-03-06T05:55:35.217Z,85.51
2023-03-06T05:58:02.626Z,85.46
2023-03-06T06:00:30.173Z,85.10
2023-03-06T06:03:02.016Z,85.36
2023-03-06T06:05:29.382Z,84.48
2023-03-06T06:07:56.804Z,78.44
2023-03-06T06:10:24.145Z,71.89
2023-03-06T06:12:51.528Z,67.56
2023-03-06T06:15:18.909Z,64.34
2023-03-06T06:17:46.360Z,60.30
2023-03-06T06:20:14.551Z,55.43
2023-03-06T06:22:41.920Z,54.87
2023-03-06T06:25:09.638Z,53.54
2023-03-06T06:27:36.985Z,52.36
2023-03-06T06:30:07.161Z,50.04
2023-03-06T06:32:34.937Z,49.36
2023-03-06T06:35:02.931Z,49.66
2023-03-06T06:37:31.180Z,47.74
2023-03-06T06:39:58.484Z,44.58
2023-03-06T06:42:33.263Z,44.92
2023-03-06T06:45:05.189Z,44.59
2023-03-06T06:47:34.229Z,43.71
2023-03-06T06:50:01.713Z,42.97
2023-03-06T06:52:29.090Z,43.75
2023-03-06T06:54:56.687Z,43.35
2023-03-06T06:57:23.990Z,40.67
2023-03-06T06:59:53.696Z,39.30
2023-03-06T07:02:21.906Z,38.83
2023-03-06T07:05:03.228Z,39.13
2023-03-06T07:07:35.718Z,39.41
2023-03-06T07:10:12.734Z,40.53
2023-03-06T07:12:40.292Z,39.09
2023-03-06T07:15:09.105Z,37.48
2023-03-06T07:17:36.434Z,36.19
2023-03-06T07:20:07.009Z,36.16
2023-03-06T07:22:49.936Z,38.13
2023-03-06T07:25:19.824Z,36.57
2023-03-06T07:27:53.351Z,35.28
2023-03-06T07:30:25.013Z,35.22
2023-03-06T07:32:55.214Z,34.14
2023-03-06T07:35:24.931Z,35.52
2023-03-06T07:37:52.771Z,35.69
2023-03-06T07:40:21.423Z,36.13
2023-03-06T07:42:48.853Z,34.66
2023-03-06T07:45:20.346Z,34.76
2023-03-06T07:47:50.936Z,33.74
2023-03-06T07:50:19.698Z,33.40
2023-03-06T07:52:50.121Z,32.90
2023-03-06T07:55:18.542Z,32.17
2023-03-06T07:57:46.417Z,32.58
2023-03-06T08:00:16.115Z,33.11
2023-03-06T08:02:43.608Z,34.13
2023-03-06T08:05:15.504Z,33.65
2023-03-06T08:07:45.049Z,33.67
2023-03-06T08:10:16.483Z,34.26
2023-03-06T08:12:44.201Z,37.53
2023-03-06T08:15:12.952Z,36.54
2023-03-06T08:17:40.782Z,36.74
2023-03-06T08:20:10.428Z,35.76
2023-03-06T08:22:38.620Z,37.06
2023-03-06T08:25:07.559Z,37.91
2023-03-06T08:27:35.538Z,37.00
2023-03-06T08:30:03.789Z,37.74
2023-03-06T08:32:31.172Z,38.21
2023-03-06T08:34:58.471Z,38.16
2023-03-06T08:37:25.917Z,38.83
2023-03-06T08:39:53.309Z,39.34
2023-03-06T08:42:20.621Z,39.02
2023-03-06T08:44:48.016Z,38.35
2023-03-06T08:47:15.398Z,38.69
2023-03-06T08:49:42.741Z,39.16
2023-03-06T08:52:11.158Z,38.64
2023-03-06T08:54:39.780Z,37.95
2023-03-06T08:57:07.201Z,37.81
2023-03-06T08:59:35.212Z,37.57
2023-03-06T09:02:03.965Z,37.97
2023-03-06T09:04:31.745Z,38.18
2023-03-06T09:07:00.536Z,38.56
2023-03-06T09:09:28.007Z,39.48
2023-03-06T09:11:56.297Z,40.48
2023-03-06T09:14:23.560Z,40.29
2023-03-06T09:16:50.859Z,41.02
2023-03-06T09:19:18.198Z,41.62
2023-03-06T09:21:45.610Z,38.37
2023-03-06T09:24:12.989Z,37.93
2023-03-06T09:26:46.027Z,36.98
2023-03-06T09:29:16.335Z,37.51
2023-03-06T09:31:44.945Z,36.52
2023-03-06T09:34:12.569Z,37.36
2023-03-06T09:36:55.040Z,36.69
2023-03-06T09:39:26.149Z,36.55
2023-03-06T09:41:55.250Z,35.90
2023-03-06T09:44:31.066Z,35.62
2023-03-06T09:47:44.838Z,35.52
2023-03-06T09:50:29.300Z,36.19
2023-03-06T09:53:11.837Z,37.40
2023-03-06T09:55:41.120Z,37.72
2023-03-06T09:58:27.585Z,40.04
2023-03-06T10:01:05.951Z,35.61
2023-03-06T10:04:12.584Z,34.73
2023-03-06T10:06:49.215Z,34.28
2023-03-06T10:09:20.692Z,33.74
2023-03-06T10:11:54.363Z,33.80
2023-03-06T10:14:47.735Z,30.12
2023-03-06T10:17:21.070Z,31.21
2023-03-06T10:19:49.376Z,31.34
2023-03-06T10:22:33.171Z,30.35
2023-03-06T10:25:25.994Z,31.01
2023-03-06T10:28:16.828Z,31.97
2023-03-06T10:31:26.646Z,31.83
2023-03-06T10:34:11.888Z,31.91
2023-03-06T10:36:39.255Z,31.01
2023-03-06T10:39:22.536Z,31.85
2023-03-06T10:41:50.176Z,32.33
2023-03-06T10:44:20.337Z,34.91
2023-03-06T10:46:52.708Z,35.36
2023-03-06T10:49:37.582Z,34.42
2023-03-06T10:52:14.207Z,35.45
2023-03-06T10:54:45.010Z,33.87
2023-03-06T10:57:29.691Z,33.55
2023-03-06T11:00:01.208Z,35.72
2023-03-06T11:02:40.918Z,34.24
2023-03-06T11:05:20.754Z,33.15
2023-03-06T11:07:59.474Z,31.82
2023-03-06T11:10:30.246Z,33.88
2023-03-06T11:13:25.888Z,34.12
2023-03-06T11:16:03.278Z,32.91
2023-03-06T11:18:42.769Z,32.91
2023-03-06T11:21:32.759Z,32.61
2023-03-06T11:24:16.696Z,31.78
2023-03-06T11:26:50.479Z,29.77
2023-03-06T11:29:31.230Z,31.19
2023-03-06T11:32:33.148Z,31.18
2023-03-06T11:35:12.284Z,29.77
2023-03-06T11:38:10.834Z,30.99
2023-03-06T11:40:51.385Z,30.70
2023-03-06T11:44:06.422Z,29.71
2023-03-06T11:46:57.933Z,31.29
2023-03-06T11:49:43.481Z,32.08
2023-03-06T11:52:44.487Z,30.37
2023-03-06T11:55:17.514Z,31.60
2023-03-06T11:58:11.964Z,31.30
2023-03-06T12:01:00.155Z,28.32
2023-03-06T12:03:42.144Z,31.84
2023-03-06T12:06:18.328Z,31.25
2023-03-06T12:08:51.447Z,31.12
2023-03-06T12:12:01.087Z,31.53
2023-03-06T12:14:46.700Z,32.57
2023-03-06T12:17:41.214Z,34.19
2023-03-06T12:20:14.512Z,33.16
2023-03-06T12:23:16.141Z,32.28
2023-03-06T12:25:51.515Z,32.98
2023-03-06T12:28:54.778Z,33.69
2023-03-06T12:31:54.597Z,32.73
2023-03-06T12:35:02.415Z,33.94
2023-03-06T12:37:51.451Z,33.71
2023-03-06T12:40:36.078Z,34.12
2023-03-06T12:43:39.972Z,34.21
2023-03-06T12:46:26.130Z,33.18
2023-03-06T12:49:15.621Z,34.68
2023-03-06T12:51:46.362Z,34.88
2023-03-06T12:54:14.935Z,35.30
2023-03-06T12:56:43.557Z,36.22
2023-03-06T12:59:38.456Z,36.48
2023-03-06T13:02:27.636Z,35.36
2023-03-06T13:05:03.769Z,35.19
2023-03-06T13:07:58.033Z,35.49
2023-03-06T13:10:30.722Z,36.10
2023-03-06T13:13:05.272Z,34.83
2023-03-06T13:16:09.321Z,34.99
2023-03-06T13:18:36.884Z,36.65
2023-03-06T13:21:04.961Z,34.27
2023-03-06T13:23:32.253Z,35.09
2023-03-06T13:26:25.056Z,35.80
2023-03-06T13:28:56.226Z,36.12
2023-03-06T13:32:14.628Z,35.65
2023-03-06T13:34:48.535Z,36.19
2023-03-06T13:37:19.407Z,36.66
2023-03-06T13:39:55.415Z,34.55
2023-03-06T13:42:37.273Z,36.15
2023-03-06T13:45:14.171Z,34.98
2023-03-06T13:48:37.534Z,35.50
2023-03-06T13:50:49.547Z,37.22
2023-03-06T13:53:29.051Z,35.24
2023-03-06T13:56:50.374Z,36.52
2023-03-06T13:59:17.644Z,36.00
2023-03-06T14:02:15.753Z,36.21
2023-03-06T14:04:53.677Z,37.07
2023-03-06T14:07:30.304Z,37.85
2023-03-06T14:10:22.868Z,36.92
2023-03-06T14:12:50.184Z,36.62
2023-03-06T14:15:21.751Z,36.41
2023-03-06T14:18:07.440Z,37.72
2023-03-06T14:20:52.362Z,36.62
2023-03-06T14:23:42.538Z,37.51
2023-03-06T14:26:24.835Z,36.10
2023-03-06T14:28:52.181Z,35.85
2023-03-06T14:31:41.300Z,35.20
2023-03-06T14:34:22.400Z,35.87
2023-03-06T14:36:58.194Z,35.67
2023-03-06T14:39:39.149Z,36.13
2023-03-06T14:42:24.735Z,36.25
2023-03-06T14:45:16.207Z,35.54
2023-03-06T14:47:50.389Z,35.59
2023-03-06T14:50:20.164Z,36.14
2023-03-06T14:52:50.372Z,36.27
2023-03-06T14:55:25.452Z,36.12
2023-03-06T14:58:20.175Z,34.72
2023-03-06T15:00:54.575Z,35.65
2023-03-06T15:03:35.632Z,36.25
2023-03-06T15:06:04.869Z,35.04
2023-03-06T15:08:39.166Z,35.67
2023-03-06T15:11:07.939Z,35.10
2023-03-06T15:13:35.778Z,34.72
2023-03-06T15:16:06.203Z,35.48
2023-03-06T15:18:35.475Z,35.79
2023-03-06T15:21:16.288Z,35.40
2023-03-06T15:23:48.434Z,36.00
2023-03-06T15:26:36.883Z,35.43
2023-03-06T15:29:10.850Z,36.43
2023-03-06T15:31:44.532Z,36.58
2023-03-06T15:34:11.930Z,35.84
2023-03-06T15:36:44.897Z,36.43
2023-03-06T15:39:39.334Z,37.27
2023-03-06T15:42:28.090Z,38.13
2023-03-06T15:45:05.597Z,38.58
2023-03-06T15:47:33.152Z,39.06
2023-03-06T15:50:00.506Z,40.23
2023-03-06T15:52:27.948Z,39.56
2023-03-06T15:54:55.250Z,38.99
2023-03-06T15:57:26.700Z,40.60
2023-03-06T15:59:56.250Z,39.43
2023-03-06T16:02:24.606Z,40.60
2023-03-06T16:04:52.673Z,41.03
2023-03-06T16:07:20.728Z,41.40
2023-03-06T16:09:48.576Z,41.29
2023-03-06T16:12:20.222Z,41.87
2023-03-06T16:14:48.854Z,41.60
2023-03-06T16:17:17.462Z,42.23
2023-03-06T16:19:45.291Z,42.25
2023-03-06T16:22:12.853Z,42.51
2023-03-06T16:24:40.704Z,42.94
2023-03-06T16:27:19.074Z,42.57
2023-03-06T16:29:46.618Z,42.98
2023-03-06T16:32:14.423Z,42.85
2023-03-06T16:34:41.967Z,42.57
2023-03-06T16:37:13.404Z,43.45
2023-03-06T16:39:40.838Z,43.03
2023-03-06T16:42:08.448Z,43.86
2023-03-06T16:44:35.891Z,45.27
2023-03-06T16:47:03.313Z,47.18
2023-03-06T16:49:30.728Z,47.33
2023-03-06T16:51:58.100Z,47.76
2023-03-06T16:54:26.237Z,46.98
2023-03-06T16:56:53.685Z,48.42
2023-03-06T16:59:21.228Z,47.87
2023-03-06T17:01:48.613Z,47.93
2023-03-06T17:04:15.955Z,48.81
2023-03-06T17:06:43.437Z,49.13
2023-03-06T17:09:11.072Z,48.49
2023-03-06T17:11:38.817Z,49.16
2023-03-06T17:14:07.017Z,49.09
2023-03-06T17:16:36.537Z,49.01
2023-03-06T17:19:04.080Z,48.17
2023-03-06T17:21:34.408Z,48.32
2023-03-06T17:24:03.691Z,48.32
2023-03-06T17:26:31.337Z,48.37
2023-03-06T17:28:58.739Z,48.52
2023-03-06T17:31:28.560Z,48.83
2023-03-06T17:33:59.258Z,49.05
2023-03-06T17:36:31.275Z,49.51
2023-03-06T17:39:01.953Z,49.66
2023-03-06T17:41:29.959Z,50.01
2023-03-06T17:43:58.307Z,51.15
2023-03-06T17:46:26.270Z,51.54
2023-03-06T17:48:55.474Z,52.39
2023-03-06T17:51:22.892Z,53.15
2023-03-06T17:53:52.147Z,52.35
2023-03-06T17:56:19.801Z,51.54
2023-03-06T17:58:47.648Z,51.30
2023-03-06T18:01:22.160Z,51.35
2023-03-06T18:03:51.532Z,52.30
2023-03-06T18:06:22.070Z,52.17
2023-03-06T18:08:52.375Z,53.05
2023-03-06T18:11:21.088Z,53.42
2023-03-06T18:13:49.293Z,53.73
2023-03-06T18:16:19.950Z,54.06
2023-03-06T18:18:47.408Z,53.97
2023-03-06T18:21:16.700Z,54.10
2023-03-06T18:23:44.417Z,54.29
2023-03-06T18:26:25.524Z,55.24
2023-03-06T18:28:56.565Z,55.44
2023-03-06T18:31:34.439Z,55.38
2023-03-06T18:34:08.048Z,56.44
2023-03-06T18:36:37.149Z,57.02
2023-03-06T18:39:08.940Z,56.61
2023-03-06T18:41:37.331Z,56.51
2023-03-06T18:44:05.967Z,58.00
2023-03-06T18:46:37.303Z,57.70
2023-03-06T18:49:05.641Z,57.64
2023-03-06T18:51:33.736Z,58.25
2023-03-06T18:54:03.058Z,58.43
2023-03-06T18:56:31.123Z,58.29
2023-03-06T18:59:06.934Z,58.13
2023-03-06T19:01:34.923Z,58.08
2023-03-06T19:04:04.497Z,58.99
2023-03-06T19:06:32.087Z,59.06
2023-03-06T19:09:01.426Z,60.21
2023-03-06T19:11:30.295Z,61.92
2023-03-06T19:13:58.440Z,63.22
2023-03-06T19:16:28.522Z,62.89
2023-03-06T19:18:57.294Z,62.05
2023-03-06T19:21:27.549Z,61.06
2023-03-06T19:23:56.140Z,59.12
2023-03-06T19:26:23.446Z,58.14
2023-03-06T19:28:52.587Z,58.14
2023-03-06T19:31:25.357Z,58.66
2023-03-06T19:33:55.974Z,59.35
2023-03-06T19:36:27.798Z,59.05
2023-03-06T19:38:57.446Z,59.48
2023-03-06T19:41:25.696Z,60.06
2023-03-06T19:43:58.303Z,60.62
2023-03-06T19:46:27.340Z,62.32
2023-03-06T19:49:01.399Z,61.57
2023-03-06T19:51:29.437Z,62.42
2023-03-06T19:53:57.708Z,63.91
2023-03-06T19:56:28.344Z,63.72
2023-03-06T19:58:56.509Z,63.58
2023-03-06T20:01:26.569Z,63.31
2023-03-06T20:03:59.444Z,63.05
2023-03-06T20:06:33.809Z,62.68
2023-03-06T20:09:04.915Z,62.46
2023-03-06T20:11:32.528Z,62.73
2023-03-06T20:14:03.842Z,63.31
2023-03-06T20:16:33.066Z,62.97
2023-03-06T20:19:02.898Z,62.95
2023-03-06T20:21:35.428Z,62.25
2023-03-06T20:24:03.196Z,61.65
2023-03-06T20:26:31.614Z,61.08
2023-03-06T20:28:59.315Z,60.57
2023-03-06T20:31:29.339Z,60.57
2023-03-06T20:33:59.538Z,60.44
2023-03-06T20:36:35.940Z,60.62
2023-03-06T20:39:11.773Z,61.24
2023-03-06T20:41:40.744Z,61.15
2023-03-06T20:44:14.506Z,61.05
2023-03-06T20:46:44.420Z,61.46
2023-03-06T20:49:13.472Z,62.34
2023-03-06T20:51:41.840Z,62.52
2023-03-06T20:54:14.026Z,62.63
2023-03-06T20:56:45.998Z,62.81
2023-03-06T20:59:14.568Z,63.26
2023-03-06T21:01:44.525Z,63.63
2023-03-06T21:04:14.089Z,63.23
2023-03-06T21:06:46.460Z,63.21
2023-03-06T21:09:17.032Z,62.83
2023-03-06T21:11:45.103Z,62.67
2023-03-06T21:14:14.345Z,63.42
2023-03-06T21:16:43.022Z,63.76
2023-03-06T21:19:11.116Z,63.82
2023-03-06T21:21:38.749Z,64.61
2023-03-06T21:24:06.350Z,64.78
2023-03-06T21:26:34.171Z,64.27
2023-03-06T21:29:02.933Z,65.25
2023-03-06T21:31:31.204Z,65.09
2023-03-06T21:33:59.446Z,65.21
2023-03-06T21:36:27.736Z,65.59
2023-03-06T21:38:55.819Z,65.71
2023-03-06T21:41:30.397Z,66.39
2023-03-06T21:44:03.863Z,66.98
2023-03-06T21:46:31.734Z,67.19
2023-03-06T21:48:59.801Z,67.29
2023-03-06T21:51:27.947Z,66.67
2023-03-06T21:53:55.854Z,66.33
2023-03-06T21:56:26.263Z,66.44
2023-03-06T21:58:54.336Z,66.68
2023-03-06T22:01:27.370Z,67.00
2023-03-06T22:03:55.258Z,67.12
2023-03-06T22:06:26.635Z,67.50
2023-03-06T22:09:00.584Z,67.69
2023-03-06T22:11:31.399Z,68.18
2023-03-06T22:13:59.915Z,68.58
2023-03-06T22:16:27.587Z,68.30
2023-03-06T22:18:54.952Z,68.54
2023-03-06T22:21:23.881Z,68.74
2023-03-06T22:23:58.383Z,68.51
2023-03-06T22:26:30.149Z,68.69
2023-03-06T22:28:57.732Z,68.55
2023-03-06T22:31:28.871Z,68.90
2023-03-06T22:33:59.802Z,69.23
2023-03-06T22:36:30.655Z,68.97
2023-03-06T22:39:01.643Z,69.05
2023-03-06T22:41:30.018Z,69.12
2023-03-06T22:44:00.225Z,69.12
2023-03-06T22:46:28.240Z,69.18
2023-03-06T22:48:57.615Z,68.95
2023-03-06T22:51:26.217Z,69.20
2023-03-06T22:53:53.571Z,69.30
2023-03-06T22:56:23.115Z,69.49
2023-03-06T22:58:51.033Z,69.48
2023-03-06T23:01:21.849Z,69.02
2023-03-06T23:03:52.673Z,69.43
2023-03-06T23:06:24.172Z,68.60
2023-03-06T23:08:58.743Z,67.93
2023-03-06T23:11:27.987Z,67.80
2023-03-06T23:14:16.040Z,67.95
2023-03-06T23:17:01.594Z,67.84
2023-03-06T23:19:49.825Z,67.57
2023-03-06T23:22:36.264Z,67.21
2023-03-06T23:25:21.989Z,66.95
2023-03-06T23:27:49.420Z,66.68
2023-03-06T23:30:17.121Z,67.01
2023-03-06T23:32:46.024Z,67.16
2023-03-06T23:35:14.074Z,66.79
2023-03-06T23:37:41.410Z,67.11
2023-03-06T23:40:10.208Z,67.37
2023-03-06T23:42:37.457Z,67.63
2023-03-06T23:45:05.513Z,67.46
2023-03-06T23:47:34.250Z,67.68
2023-03-06T23:50:01.604Z,67.87
2023-03-06T23:52:28.838Z,68.05
2023-03-06T23:54:56.161Z,68.15
2023-03-06T23:57:23.940Z,68.61
2023-03-06T23:59:51.348Z,68.93
